Time;durP1;ratioP1;P1;durP2;ratioP2;P2;SDS_P1;SDS_P2;PMS_P1;PMS_P2;Temp;Humidity;BMP_temperature;BMP_pressure;BME280_temperature;BME280_humidity;BME280_pressure;Samples;Min_cycle;Max_cycle;Signal;HPM_P1;HPM_P2
2022/10/08 00:00:01;;;;;;;18.52;13.15;;;11.60;99.90;;;;;;5030592;28;20055;-83
2022/10/08 00:02:37;;;;;;;20.25;13.07;;;11.60;99.90;;;;;;5040668;28;20048;-83
2022/10/08 00:05:03;;;;;;;19.67;14.25;;;11.60;99.90;;;;;;5067224;28;20106;-83
2022/10/08 00:07:29;;;;;;;20.15;13.18;;;11.60;99.90;;;;;;5033558;28;20033;-83
2022/10/08 00:09:55;;;;;;;16.67;12.98;;;11.70;99.90;;;;;;5050324;28;20040;-83
2022/10/08 00:12:21;;;;;;;20.90;13.50;;;11.70;99.90;;;;;;5046544;28;20036;-83
2022/10/08 00:14:46;;;;;;;18.08;13.25;;;11.70;99.90;;;;;;5050274;28;20661;-83
2022/10/08 00:17:12;;;;;;;18.38;13.20;;;11.70;99.90;;;;;;5050032;28;20036;-83
2022/10/08 00:19:38;;;;;;;19.75;13.50;;;11.70;99.90;;;;;;5050434;28;20032;-83
2022/10/08 00:22:04;;;;;;;18.45;13.52;;;11.70;99.90;;;;;;5047269;28;20038;-83
2022/10/08 00:24:30;;;;;;;21.75;14.13;;;11.70;99.90;;;;;;5036415;28;20094;-83
2022/10/08 00:26:57;;;;;;;27.45;16.52;;;11.70;99.90;;;;;;5037939;28;20044;-83
2022/10/08 00:29:22;;;;;;;23.35;15.50;;;11.80;99.90;;;;;;5050348;28;20086;-83
2022/10/08 00:31:49;;;;;;;22.67;16.10;;;11.70;99.90;;;;;;5049656;28;20163;-83
2022/10/08 00:34:19;;;;;;;23.23;16.00;;;11.80;99.90;;;;;;5041332;28;20116;-83
2022/10/08 00:36:48;;;;;;;21.55;15.07;;;11.80;99.90;;;;;;5049990;28;20475;-83
2022/10/08 00:39:17;;;;;;;24.65;16.42;;;11.90;99.90;;;;;;5030253;28;20048;-83
2022/10/08 00:41:46;;;;;;;21.60;15.38;;;11.80;99.90;;;;;;5032770;28;20045;-83
2022/10/08 00:44:50;;;;;;;24.95;15.80;;;11.80;99.90;;;;;;5063322;28;20025;-84
2022/10/08 00:47:31;;;;;;;22.70;15.70;;;11.80;99.90;;;;;;5063873;28;20032;-83
2022/10/08 00:50:14;;;;;;;24.33;15.70;;;11.80;99.90;;;;;;5049636;28;20414;-83
2022/10/08 00:52:52;;;;;;;26.55;17.05;;;11.80;99.90;;;;;;5053583;28;20029;-83
2022/10/08 00:55:21;;;;;;;27.45;17.52;;;11.80;99.90;;;;;;5031688;28;20040;-84
2022/10/08 00:57:48;;;;;;;28.90;17.05;;;11.80;99.90;;;;;;5048534;28;20036;-83
2022/10/08 01:00:18;;;;;;;25.40;16.90;;;11.80;99.90;;;;;;5047949;28;20059;-84
2022/10/08 01:02:44;;;;;;;27.23;17.95;;;11.90;99.90;;;;;;5027097;28;20051;-83
2022/10/08 01:05:14;;;;;;;22.83;16.23;;;11.90;99.90;;;;;;5063750;28;20021;-83
2022/10/08 01:08:30;;;;;;;27.15;18.40;;;11.90;99.90;;;;;;5055326;28;20036;-83
2022/10/08 01:10:56;;;;;;;27.23;18.52;;;11.80;99.90;;;;;;5018899;28;20033;-83
2022/10/08 01:13:37;;;;;;;27.10;17.67;;;11.80;99.90;;;;;;5040232;28;20036;-84
2022/10/08 01:16:25;;;;;;;27.05;17.77;;;11.80;99.90;;;;;;5037247;28;20083;-83
2022/10/08 01:19:40;;;;;;;26.77;16.88;;;11.80;99.90;;;;;;5068127;28;20101;-83
2022/10/08 01:22:34;;;;;;;28.92;18.67;;;11.80;99.90;;;;;;5052728;28;20029;-83
2022/10/08 01:25:32;;;;;;;26.67;17.65;;;11.80;99.90;;;;;;5053065;28;20029;-83
2022/10/08 01:28:35;;;;;;;24.15;16.73;;;11.80;99.90;;;;;;5046609;28;20159;-83
2022/10/08 01:31:12;;;;;;;24.35;16.70;;;11.80;99.90;;;;;;5058056;28;20044;-83
2022/10/08 01:33:50;;;;;;;25.55;16.90;;;11.70;99.90;;;;;;5054553;28;20020;-83
2022/10/08 01:36:18;;;;;;;28.08;17.73;;;11.70;99.90;;;;;;5052887;28;20033;-83
2022/10/08 01:38:49;;;;;;;24.75;15.98;;;11.60;99.90;;;;;;5053532;28;20043;-84
2022/10/08 01:41:17;;;;;;;22.90;15.65;;;11.60;99.90;;;;;;5052882;28;20037;-83
2022/10/08 01:43:48;;;;;;;18.30;13.48;;;11.50;99.90;;;;;;5066876;28;20033;-83
2022/10/08 01:46:21;;;;;;;20.70;13.85;;;11.50;99.90;;;;;;5025353;28;20036;-83
2022/10/08 01:48:50;;;;;;;19.48;14.23;;;11.50;99.90;;;;;;5069683;28;20424;-83
2022/10/08 01:51:19;;;;;;;19.65;14.23;;;11.50;99.90;;;;;;5038583;28;20067;-84
2022/10/08 01:53:48;;;;;;;19.05;13.70;;;11.40;99.90;;;;;;5060710;28;20033;-83
2022/10/08 01:56:19;;;;;;;22.25;14.77;;;11.40;99.90;;;;;;5048763;28;20386;-84
2022/10/08 01:59:13;;;;;;;19.70;13.98;;;11.50;99.90;;;;;;5061839;28;20039;-83
2022/10/08 02:01:49;;;;;;;19.67;13.70;;;11.60;99.90;;;;;;5053723;28;20036;-83
2022/10/08 02:04:37;;;;;;;25.45;15.13;;;11.50;99.90;;;;;;5054185;28;20032;-84
2022/10/08 02:07:08;;;;;;;19.85;14.82;;;11.50;99.90;;;;;;5069056;28;20602;-83
2022/10/08 02:09:40;;;;;;;22.02;14.23;;;11.50;99.90;;;;;;5052594;28;20089;-83
2022/10/08 02:12:07;;;;;;;23.15;16.02;;;11.50;99.90;;;;;;5060399;28;20036;-84
2022/10/08 02:14:35;;;;;;;22.40;14.52;;;11.50;99.90;;;;;;5044517;28;20028;-83
2022/10/08 02:17:23;;;;;;;24.65;16.13;;;11.50;99.90;;;;;;5064640;28;20724;-83
2022/10/08 02:20:11;;;;;;;23.30;15.60;;;11.50;99.90;;;;;;5054075;28;20082;-83
2022/10/08 02:22:44;;;;;;;25.17;16.55;;;11.60;99.90;;;;;;5032331;28;20428;-83
2022/10/08 02:25:27;;;;;;;23.83;16.23;;;11.60;99.90;;;;;;5032412;28;20457;-83
2022/10/08 02:28:27;;;;;;;22.42;15.65;;;11.70;99.90;;;;;;5048640;28;20123;-83
2022/10/08 02:31:18;;;;;;;22.58;15.70;;;11.70;99.90;;;;;;5054264;28;20124;-83
2022/10/08 02:33:58;;;;;;;19.65;14.18;;;11.70;99.90;;;;;;5064718;28;20020;-83
2022/10/08 02:36:30;;;;;;;18.73;13.52;;;11.70;99.90;;;;;;5068263;28;20024;-83
2022/10/08 02:39:00;;;;;;;19.90;13.98;;;11.70;99.90;;;;;;5043202;28;20037;-83
2022/10/08 02:41:51;;;;;;;18.70;12.93;;;11.70;99.90;;;;;;5059449;28;20380;-84
2022/10/08 02:44:27;;;;;;;26.42;17.88;;;11.70;99.90;;;;;;5065205;28;20068;-83
2022/10/08 02:46:59;;;;;;;27.83;18.55;;;11.70;99.90;;;;;;5052158;28;20028;-83
2022/10/08 02:49:33;;;;;;;24.40;16.40;;;11.70;99.90;;;;;;5052076;28;20083;-83
2022/10/08 02:52:01;;;;;;;23.00;15.82;;;11.70;99.90;;;;;;5051542;28;20131;-83
2022/10/08 02:54:31;;;;;;;28.77;18.23;;;11.70;99.90;;;;;;5049210;28;20124;-83
2022/10/08 02:57:04;;;;;;;26.90;18.17;;;11.80;99.90;;;;;;5046651;28;20033;-83
2022/10/08 02:59:32;;;;;;;30.90;19.48;;;11.80;99.90;;;;;;5068335;28;21437;-83
2022/10/08 03:02:04;;;;;;;26.30;17.83;;;11.80;99.90;;;;;;5034842;28;20511;-84
2022/10/08 03:04:35;;;;;;;29.33;19.10;;;11.80;99.90;;;;;;5051319;28;20047;-83
2022/10/08 03:07:03;;;;;;;30.30;19.70;;;11.90;99.90;;;;;;5067849;28;20123;-83
2022/10/08 03:09:33;;;;;;;24.63;17.77;;;11.90;99.90;;;;;;5031561;28;20069;-84
2022/10/08 03:12:00;;;;;;;28.23;19.13;;;11.80;99.90;;;;;;5060589;28;20123;-84
2022/10/08 03:14:27;;;;;;;26.73;17.77;;;11.80;99.90;;;;;;5034963;28;20868;-83
2022/10/08 03:16:53;;;;;;;30.25;18.55;;;11.80;99.90;;;;;;5051217;28;20052;-83
2022/10/08 03:19:20;;;;;;;26.95;17.42;;;11.80;99.90;;;;;;5051569;28;20056;-84
2022/10/08 03:21:48;;;;;;;32.72;18.83;;;11.80;99.90;;;;;;5051072;28;20067;-83
2022/10/08 03:24:15;;;;;;;31.83;19.85;;;11.80;99.90;;;;;;5050719;28;20050;-83
2022/10/08 03:26:41;;;;;;;29.42;19.40;;;11.80;99.90;;;;;;5035237;28;20559;-83
2022/10/08 03:29:08;;;;;;;32.13;19.63;;;11.80;99.90;;;;;;5051074;28;20089;-83
2022/10/08 03:31:34;;;;;;;24.75;16.60;;;11.80;99.90;;;;;;5068468;28;20036;-83
2022/10/08 03:34:00;;;;;;;27.77;16.52;;;11.90;99.90;;;;;;5034513;28;20037;-83
2022/10/08 03:36:27;;;;;;;26.17;15.82;;;11.90;99.90;;;;;;5050951;28;20044;-83
2022/10/08 03:38:53;;;;;;;23.20;13.82;;;11.90;99.90;;;;;;5067509;28;20031;-83
2022/10/08 03:41:18;;;;;;;24.20;16.33;;;11.80;99.90;;;;;;5050321;28;20079;-83
2022/10/08 03:43:44;;;;;;;22.50;14.20;;;11.80;99.90;;;;;;5033459;28;20056;-83
2022/10/08 03:46:13;;;;;;;21.52;14.15;;;11.80;99.90;;;;;;5035611;28;20037;-84
2022/10/08 03:48:39;;;;;;;22.55;15.30;;;11.80;99.90;;;;;;5050858;28;20038;-84
2022/10/08 03:51:10;;;;;;;24.00;16.33;;;11.80;99.90;;;;;;5066748;28;20040;-84
2022/10/08 03:53:38;;;;;;;26.55;16.60;;;11.70;99.90;;;;;;5050262;28;20261;-84
2022/10/08 03:56:07;;;;;;;24.27;15.38;;;11.70;99.90;;;;;;5064412;28;20032;-84
2022/10/08 03:58:33;;;;;;;20.98;15.45;;;11.70;99.90;;;;;;5036435;28;20021;-84
2022/10/08 04:01:05;;;;;;;23.98;15.77;;;11.70;99.90;;;;;;5041923;28;20032;-84
2022/10/08 04:03:31;;;;;;;29.27;17.33;;;11.70;99.90;;;;;;5032652;28;20463;-84
2022/10/08 04:05:57;;;;;;;29.13;16.42;;;11.70;99.90;;;;;;5033370;28;20094;-85
2022/10/08 04:08:24;;;;;;;23.05;15.70;;;11.70;99.90;;;;;;5050283;28;20254;-84
2022/10/08 04:10:50;;;;;;;25.45;17.05;;;11.70;99.90;;;;;;5033264;28;20040;-84
2022/10/08 04:13:16;;;;;;;29.88;18.17;;;11.70;99.90;;;;;;5029749;28;20029;-84
2022/10/08 04:15:43;;;;;;;27.40;17.52;;;11.70;99.90;;;;;;5033434;28;20040;-84
2022/10/08 04:18:11;;;;;;;24.17;15.82;;;11.70;99.90;;;;;;5063536;28;20030;-83
2022/10/08 04:20:39;;;;;;;29.02;17.25;;;11.70;99.90;;;;;;5050584;28;20354;-84
2022/10/08 04:23:05;;;;;;;25.83;17.38;;;11.70;99.90;;;;;;5033589;28;20033;-83
2022/10/08 04:25:31;;;;;;;31.98;18.92;;;11.70;99.90;;;;;;5033921;28;20025;-84
2022/10/08 04:27:57;;;;;;;28.38;17.48;;;11.60;99.90;;;;;;5034107;28;20131;-83
2022/10/08 04:30:23;;;;;;;23.55;16.95;;;11.60;99.90;;;;;;5037692;28;20124;-84
2022/10/08 04:32:49;;;;;;;27.80;18.38;;;11.60;99.90;;;;;;5033505;28;20033;-84
2022/10/08 04:35:15;;;;;;;28.67;18.38;;;11.60;99.90;;;;;;5045611;28;20083;-84
2022/10/08 04:37:41;;;;;;;24.38;16.60;;;11.50;99.90;;;;;;5033900;28;20028;-84
2022/10/08 04:40:08;;;;;;;28.30;17.38;;;11.50;99.90;;;;;;5030071;28;20102;-84
2022/10/08 04:42:33;;;;;;;28.60;18.30;;;11.50;99.90;;;;;;5048387;28;20036;-84
2022/10/08 04:44:59;;;;;;;32.92;18.67;;;11.50;99.90;;;;;;5049615;28;20369;-84
2022/10/08 04:47:25;;;;;;;25.38;17.45;;;11.60;99.90;;;;;;5050017;28;20381;-84
2022/10/08 04:49:51;;;;;;;29.38;17.65;;;11.50;99.90;;;;;;5049734;28;20178;-84
2022/10/08 04:52:19;;;;;;;27.25;17.63;;;11.50;99.90;;;;;;5048203;28;20344;-84
2022/10/08 04:54:45;;;;;;;23.55;15.60;;;11.50;99.90;;;;;;5053057;28;20504;-84
2022/10/08 04:57:11;;;;;;;24.17;16.02;;;11.60;99.90;;;;;;5068176;28;20035;-84
2022/10/08 04:59:37;;;;;;;23.98;15.38;;;11.50;99.90;;;;;;5054020;28;20028;-84
2022/10/08 05:02:03;;;;;;;20.40;14.90;;;11.50;99.90;;;;;;5069577;28;20028;-84
2022/10/08 05:04:29;;;;;;;21.52;14.93;;;11.50;99.90;;;;;;5053631;28;20036;-84
2022/10/08 05:06:55;;;;;;;21.48;14.88;;;11.50;99.90;;;;;;5037236;28;20047;-84
2022/10/08 05:09:21;;;;;;;24.35;14.35;;;11.50;99.90;;;;;;5044292;28;20124;-84
2022/10/08 05:11:49;;;;;;;23.77;15.35;;;11.50;99.90;;;;;;5046728;28;20059;-83
2022/10/08 05:14:14;;;;;;;27.48;18.60;;;11.50;99.90;;;;;;5048464;28;20571;-84
2022/10/08 05:16:40;;;;;;;25.38;17.33;;;11.50;99.90;;;;;;5046349;28;20051;-84
2022/10/08 05:19:06;;;;;;;26.40;17.90;;;11.50;99.90;;;;;;5052143;28;20082;-84
2022/10/08 05:21:32;;;;;;;22.75;16.63;;;11.40;99.90;;;;;;5057014;28;20024;-84
2022/10/08 05:24:00;;;;;;;25.88;16.30;;;11.40;99.90;;;;;;5053148;28;20557;-84
2022/10/08 05:26:33;;;;;;;26.15;17.65;;;11.50;99.90;;;;;;5040283;28;20091;-83
2022/10/08 05:28:59;;;;;;;32.08;18.23;;;11.50;99.90;;;;;;5048751;28;20036;-84
2022/10/08 05:31:26;;;;;;;27.42;18.17;;;11.50;99.90;;;;;;5027441;28;20678;-82
2022/10/08 05:33:52;;;;;;;21.45;15.88;;;11.50;99.90;;;;;;5053399;28;20425;-82
2022/10/08 05:36:23;;;;;;;23.88;16.55;;;11.50;99.90;;;;;;5038347;28;20089;-82
2022/10/08 05:38:49;;;;;;;25.35;16.67;;;11.50;99.90;;;;;;5053439;28;20028;-82
2022/10/08 05:41:22;;;;;;;24.67;16.80;;;11.50;99.90;;;;;;5052500;28;20039;-82
2022/10/08 05:43:49;;;;;;;26.00;15.93;;;11.50;99.90;;;;;;5069644;28;20036;-82
2022/10/08 05:46:16;;;;;;;25.20;17.55;;;11.40;99.90;;;;;;5048875;28;20043;-82
2022/10/08 05:48:42;;;;;;;25.10;15.77;;;11.50;99.90;;;;;;5036559;28;20400;-82
2022/10/08 05:51:11;;;;;;;27.27;17.15;;;11.50;99.90;;;;;;5070536;28;20020;-81
2022/10/08 05:53:38;;;;;;;24.42;16.77;;;11.50;99.90;;;;;;5052792;28;20048;-82
2022/10/08 05:56:07;;;;;;;25.67;16.73;;;11.40;99.90;;;;;;5040725;28;20040;-82
2022/10/08 05:58:34;;;;;;;21.60;15.32;;;11.40;99.90;;;;;;5052946;28;20035;-82
2022/10/08 06:01:02;;;;;;;25.77;17.13;;;11.40;99.90;;;;;;5052916;28;20058;-82
2022/10/08 06:03:28;;;;;;;24.98;16.33;;;11.50;99.90;;;;;;5052555;28;20056;-82
2022/10/08 06:05:54;;;;;;;26.58;17.13;;;11.50;99.90;;;;;;5035713;28;20678;-82
2022/10/08 06:08:21;;;;;;;27.70;17.42;;;11.50;99.90;;;;;;5049474;28;20098;-82
2022/10/08 06:10:54;;;;;;;29.85;18.92;;;11.50;99.90;;;;;;5037376;28;20094;-82
2022/10/08 06:13:21;;;;;;;27.48;18.05;;;11.60;99.90;;;;;;5066489;28;20124;-82
2022/10/08 06:16:13;;;;;;;28.83;18.77;;;11.60;99.90;;;;;;5036451;28;20236;-82
2022/10/08 06:18:40;;;;;;;27.20;18.50;;;11.60;99.90;;;;;;5031331;28;20111;-82
2022/10/08 06:21:19;;;;;;;28.13;18.58;;;11.70;99.90;;;;;;5050103;28;20041;-81
2022/10/08 06:23:47;;;;;;;31.73;20.10;;;11.70;99.90;;;;;;5035811;28;20048;-82
2022/10/08 06:26:14;;;;;;;30.80;19.70;;;11.70;99.90;;;;;;5052464;28;20041;-82
2022/10/08 06:28:40;;;;;;;31.42;19.45;;;11.70;99.90;;;;;;5067555;28;20062;-82
2022/10/08 06:31:07;;;;;;;30.77;19.60;;;11.80;99.90;;;;;;5068546;28;20120;-82
2022/10/08 06:33:33;;;;;;;26.92;18.65;;;11.90;99.90;;;;;;5051877;28;20028;-82
2022/10/08 06:36:27;;;;;;;28.55;19.67;;;11.90;99.90;;;;;;5052656;28;20705;-82
2022/10/08 06:38:57;;;;;;;26.58;19.50;;;12.00;99.90;;;;;;5016686;28;20388;-82
2022/10/08 06:41:25;;;;;;;31.48;20.38;;;12.00;99.90;;;;;;5050467;28;20098;-82
2022/10/08 06:43:51;;;;;;;29.58;20.10;;;12.00;99.90;;;;;;5051930;28;20024;-82
2022/10/08 06:46:18;;;;;;;27.52;18.98;;;12.10;99.90;;;;;;5068100;28;20302;-82
2022/10/08 06:48:44;;;;;;;34.35;23.30;;;12.20;99.90;;;;;;5034909;28;20031;-82
2022/10/08 06:51:13;;;;;;;28.92;19.90;;;12.30;99.90;;;;;;5051725;28;20082;-82
2022/10/08 06:53:40;;;;;;;29.83;19.60;;;12.40;99.90;;;;;;5052608;28;20051;-82
2022/10/08 06:56:11;;;;;;;30.45;18.02;;;12.60;99.90;;;;;;5051847;28;20695;-82
2022/10/08 06:58:37;;;;;;;30.52;18.77;;;12.60;99.90;;;;;;5036226;28;20068;-82
2022/10/08 07:01:08;;;;;;;26.02;17.92;;;12.70;99.90;;;;;;5049375;28;20115;-82
2022/10/08 07:03:35;;;;;;;26.17;17.20;;;12.80;99.90;;;;;;5048289;28;20393;-82
2022/10/08 07:06:03;;;;;;;25.48;18.30;;;12.70;99.90;;;;;;5051270;28;20385;-82
2022/10/08 07:08:29;;;;;;;26.58;16.85;;;12.70;99.90;;;;;;5044523;28;20033;-82
2022/10/08 07:11:05;;;;;;;24.40;16.90;;;12.70;99.90;;;;;;5061213;28;20116;-82
2022/10/08 07:13:32;;;;;;;34.22;23.27;;;12.70;99.90;;;;;;5061753;28;20086;-82
2022/10/08 07:16:09;;;;;;;26.48;18.20;;;12.70;99.90;;;;;;5043678;28;20147;-81
2022/10/08 07:18:37;;;;;;;24.13;17.73;;;12.60;99.90;;;;;;5034427;28;20039;-82
2022/10/08 07:21:04;;;;;;;25.45;17.38;;;12.60;99.90;;;;;;5063926;28;20119;-81
2022/10/08 07:23:30;;;;;;;29.52;18.33;;;12.60;99.90;;;;;;5062359;28;20493;-81
2022/10/08 07:26:05;;;;;;;28.75;17.77;;;12.50;99.90;;;;;;5053989;28;20024;-81
2022/10/08 07:28:34;;;;;;;27.38;18.27;;;12.60;99.90;;;;;;5034599;28;20040;-81
2022/10/08 07:31:12;;;;;;;34.30;20.73;;;12.70;99.90;;;;;;5051060;28;20133;-82
2022/10/08 07:33:39;;;;;;;23.10;16.38;;;12.80;99.90;;;;;;5051043;28;20021;-82
2022/10/08 07:36:11;;;;;;;24.25;16.60;;;12.90;99.90;;;;;;5031069;28;20044;-82
2022/10/08 07:38:38;;;;;;;22.63;15.65;;;13.00;99.90;;;;;;5043207;28;20135;-82
2022/10/08 07:41:04;;;;;;;26.70;17.00;;;13.10;99.90;;;;;;5060193;28;20088;-82
2022/10/08 07:43:30;;;;;;;25.15;16.75;;;13.20;99.90;;;;;;5050616;28;21245;-82
2022/10/08 07:45:55;;;;;;;31.42;17.67;;;13.40;99.90;;;;;;5031836;28;20032;-82
2022/10/08 07:48:22;;;;;;;24.52;17.02;;;13.50;99.90;;;;;;5035104;28;20033;-82
2022/10/08 07:50:48;;;;;;;27.35;17.58;;;13.60;99.90;;;;;;5053844;28;20028;-81
2022/10/08 07:53:14;;;;;;;27.10;17.10;;;13.60;99.90;;;;;;5032736;28;20035;-82
2022/10/08 07:55:39;;;;;;;28.17;16.15;;;13.80;99.90;;;;;;5050719;28;20047;-81
2022/10/08 07:58:05;;;;;;;20.73;14.73;;;14.00;99.90;;;;;;5023121;28;20128;-82
2022/10/08 08:00:31;;;;;;;23.65;14.98;;;14.20;99.90;;;;;;5025636;28;20036;-82
2022/10/08 08:02:57;;;;;;;18.85;14.38;;;14.40;99.90;;;;;;5033226;28;20032;-82
2022/10/08 08:05:22;;;;;;;19.23;13.30;;;14.60;99.90;;;;;;5018668;28;20036;-82
2022/10/08 08:07:48;;;;;;;21.00;12.63;;;14.80;99.90;;;;;;5034488;28;20492;-82
2022/10/08 08:10:14;;;;;;;21.48;12.85;;;15.10;99.90;;;;;;5033552;28;20473;-82
2022/10/08 08:12:40;;;;;;;19.17;11.93;;;15.30;99.90;;;;;;5034243;28;20044;-82
2022/10/08 08:15:06;;;;;;;14.27;10.25;;;15.40;99.90;;;;;;5051021;28;20397;-82
2022/10/08 08:17:34;;;;;;;16.17;10.60;;;15.50;99.90;;;;;;5034669;28;20028;-82
2022/10/08 08:20:00;;;;;;;13.07;9.75;;;15.60;99.90;;;;;;5047640;28;20036;-82
2022/10/08 08:22:25;;;;;;;18.15;9.77;;;15.50;99.90;;;;;;5046576;28;20075;-83
2022/10/08 08:24:51;;;;;;;14.25;10.43;;;15.40;99.90;;;;;;5041190;28;20614;-83
2022/10/08 08:27:17;;;;;;;27.38;12.25;;;15.20;99.90;;;;;;5051353;28;20545;-83
2022/10/08 08:29:43;;;;;;;14.80;9.85;;;15.10;99.90;;;;;;5049561;28;20079;-84
2022/10/08 08:32:09;;;;;;;13.98;8.75;;;15.00;99.90;;;;;;5070321;28;20109;-83
2022/10/08 08:34:34;;;;;;;13.82;8.32;;;14.90;99.90;;;;;;5071501;28;20669;-83
2022/10/08 08:37:00;;;;;;;14.57;8.35;;;14.80;99.90;;;;;;5052244;28;20029;-83
2022/10/08 08:39:28;;;;;;;14.20;8.30;;;14.70;99.90;;;;;;5054656;28;20036;-84
2022/10/08 08:42:05;;;;;;;13.82;8.02;;;14.60;99.90;;;;;;5053122;28;20077;-83
2022/10/08 08:44:37;;;;;;;10.77;7.55;;;14.50;99.90;;;;;;5055751;28;20025;-84
2022/10/08 08:47:30;;;;;;;13.75;7.30;;;14.50;99.90;;;;;;5050861;28;20038;-83
2022/10/08 08:50:07;;;;;;;9.68;6.68;;;14.50;99.90;;;;;;5036730;28;20060;-83
2022/10/08 08:52:39;;;;;;;11.75;6.18;;;14.40;99.90;;;;;;5054207;28;20040;-83
2022/10/08 08:55:17;;;;;;;9.30;5.00;;;14.40;99.90;;;;;;5052252;28;20546;-83
2022/10/08 08:57:46;;;;;;;8.77;4.03;;;14.40;99.90;;;;;;5063882;28;20029;-82
2022/10/08 09:00:16;;;;;;;7.28;4.07;;;14.40;99.90;;;;;;5067150;28;20045;-83
2022/10/08 09:03:23;;;;;;;9.15;4.28;;;14.40;99.90;;;;;;5021852;28;20033;-84
2022/10/08 09:05:53;;;;;;;7.82;4.07;;;14.50;99.90;;;;;;5017944;28;20390;-83
2022/10/08 09:08:30;;;;;;;7.38;3.47;;;14.60;99.90;;;;;;5033822;28;20037;-83
2022/10/08 09:11:00;;;;;;;8.77;3.58;;;14.70;99.90;;;;;;5038409;28;20052;-86
2022/10/08 09:13:52;;;;;;;4.97;2.90;;;14.70;99.90;;;;;;5055728;28;20094;-82
2022/10/08 09:16:18;;;;;;;8.57;3.13;;;14.70;99.90;;;;;;5070396;28;20036;-83
2022/10/08 09:18:49;;;;;;;11.88;2.53;;;14.70;99.90;;;;;;5055374;28;20120;-82
2022/10/08 09:21:17;;;;;;;5.88;2.33;;;14.70;99.90;;;;;;5055266;28;20041;-82
2022/10/08 09:23:44;;;;;;;7.55;3.33;;;14.70;99.90;;;;;;5068269;28;20025;-85
2022/10/08 09:26:18;;;;;;;8.50;2.78;;;14.70;99.90;;;;;;5053825;28;20404;-84
2022/10/08 09:28:48;;;;;;;3.15;2.35;;;14.80;99.90;;;;;;5072311;28;20037;-83
2022/10/08 09:31:20;;;;;;;3.80;2.53;;;14.80;99.90;;;;;;5055092;28;20511;-83
2022/10/08 09:33:54;;;;;;;10.15;3.00;;;14.90;99.90;;;;;;5066133;28;20025;-83
2022/10/08 09:36:36;;;;;;;6.37;3.23;;;14.90;99.90;;;;;;5048872;28;20110;-83
2022/10/08 09:39:15;;;;;;;4.78;2.53;;;15.00;99.90;;;;;;5047411;28;20044;-82
2022/10/08 09:41:43;;;;;;;6.68;2.70;;;15.00;99.90;;;;;;5066533;28;20061;-86
2022/10/08 09:44:22;;;;;;;10.85;2.90;;;15.10;99.90;;;;;;5052814;28;20214;-86
2022/10/08 09:47:02;;;;;;;4.85;2.78;;;15.30;99.90;;;;;;5042495;28;20036;-85
2022/10/08 09:49:31;;;;;;;3.88;2.42;;;15.40;99.90;;;;;;5074187;28;20127;-86
2022/10/08 09:52:03;;;;;;;4.78;2.83;;;15.40;99.90;;;;;;5051936;28;20029;-83
2022/10/08 09:54:34;;;;;;;8.27;2.67;;;15.50;99.90;;;;;;5044992;28;20077;-83
2022/10/08 09:57:01;;;;;;;4.80;2.42;;;15.60;99.90;;;;;;5044291;28;20496;-84
2022/10/08 09:59:30;;;;;;;4.20;2.42;;;15.60;99.90;;;;;;5020424;28;20033;-83
2022/10/08 10:01:57;;;;;;;5.50;2.50;;;15.60;99.90;;;;;;5047746;28;20032;-86
2022/10/08 10:04:37;;;;;;;3.33;2.25;;;15.60;99.90;;;;;;5054870;28;20403;-85
2022/10/08 10:07:04;;;;;;;3.03;2.13;;;15.50;99.90;;;;;;5045418;28;20200;-84
2022/10/08 10:09:42;;;;;;;4.93;2.00;;;15.50;99.90;;;;;;5067777;28;20036;-83
2022/10/08 10:12:25;;;;;;;2.35;2.00;;;15.40;99.90;;;;;;5053114;28;20033;-85
2022/10/08 10:14:51;;;;;;;5.07;2.70;;;15.30;99.90;;;;;;5054980;28;20025;-83
2022/10/08 10:17:39;;;;;;;5.30;2.88;;;15.30;99.90;;;;;;5071159;28;20400;-83
2022/10/08 10:20:12;;;;;;;4.80;2.55;;;15.30;99.90;;;;;;5034942;28;20062;-84
2022/10/08 10:22:54;;;;;;;6.07;2.55;;;15.20;99.90;;;;;;5040852;28;20035;-84
2022/10/08 10:25:27;;;;;;;5.90;2.33;;;15.30;99.90;;;;;;5053463;28;20047;-86
2022/10/08 10:27:59;;;;;;;6.07;2.92;;;15.30;99.90;;;;;;5053730;28;20029;-84
2022/10/08 10:30:25;;;;;;;4.28;2.30;;;15.30;99.90;;;;;;5059736;28;20032;-84
2022/10/08 10:33:26;;;;;;;5.72;2.72;;;15.40;99.90;;;;;;5049533;28;20064;-85
2022/10/08 10:35:55;;;;;;;3.30;1.98;;;15.40;99.90;;;;;;5028460;28;20102;-83
2022/10/08 10:38:27;;;;;;;8.15;2.58;;;15.50;99.90;;;;;;5062778;28;20442;-85
2022/10/08 10:41:08;;;;;;;4.25;2.20;;;15.50;99.90;;;;;;5063961;28;20017;-85
2022/10/08 10:43:59;;;;;;;5.10;2.33;;;15.50;99.90;;;;;;5053352;28;20099;-84
2022/10/08 10:46:45;;;;;;;4.63;1.70;;;15.60;99.90;;;;;;5051874;28;20031;-83
2022/10/08 10:49:15;;;;;;;4.70;1.73;;;15.60;99.90;;;;;;5065871;28;20665;-84
2022/10/08 10:52:11;;;;;;;6.03;1.48;;;15.70;99.90;;;;;;5043113;28;20040;-84
2022/10/08 10:55:02;;;;;;;3.22;1.30;;;15.60;99.90;;;;;;5046019;28;20090;-85
2022/10/08 10:57:53;;;;;;;2.42;1.40;;;15.60;99.90;;;;;;5061381;28;20040;-84
2022/10/08 11:00:26;;;;;;;3.13;1.42;;;15.50;99.90;;;;;;5067755;28;20035;-84
2022/10/08 11:02:57;;;;;;;6.03;1.60;;;15.40;99.90;;;;;;5052422;28;20078;-84
2022/10/08 11:05:25;;;;;;;1.90;1.20;;;15.40;99.90;;;;;;5047034;28;20028;-83
2022/10/08 11:08:08;;;;;;;4.68;1.60;;;15.40;99.90;;;;;;5048842;28;20098;-83
2022/10/08 11:11:00;;;;;;;3.05;1.30;;;15.30;99.90;;;;;;5035223;28;20043;-83
2022/10/08 11:13:52;;;;;;;2.90;1.20;;;15.30;99.90;;;;;;5050347;28;20059;-83
2022/10/08 11:16:45;;;;;;;3.70;1.20;;;15.20;99.90;;;;;;5066860;28;20020;-85
2022/10/08 11:19:32;;;;;;;4.88;1.27;;;15.20;99.90;;;;;;5050186;28;20033;-84
2022/10/08 11:22:34;;;;;;;4.68;0.90;;;15.20;99.90;;;;;;5060319;28;20028;-83
2022/10/08 11:25:32;;;;;;;6.00;1.25;;;15.10;99.90;;;;;;5058750;28;20032;-84
2022/10/08 11:28:26;;;;;;;6.00;1.10;;;15.10;99.90;;;;;;5040169;28;20070;-84
2022/10/08 11:31:21;;;;;;;3.05;0.90;;;15.10;99.90;;;;;;5046101;28;20029;-84
2022/10/08 11:33:49;;;;;;;4.05;0.80;;;15.00;99.90;;;;;;5063952;28;20059;-86
2022/10/08 11:36:44;;;;;;;17.15;2.78;;;14.90;99.90;;;;;;5051668;28;20545;-84
2022/10/08 11:39:19;;;;;;;5.88;0.90;;;14.90;99.90;;;;;;5065903;28;20510;-84
2022/10/08 11:42:15;;;;;;;5.28;0.98;;;14.90;99.90;;;;;;5051223;28;20059;-84
2022/10/08 11:44:41;;;;;;;3.33;1.08;;;14.90;99.90;;;;;;5031689;28;20033;-84
2022/10/08 11:47:41;;;;;;;2.72;1.00;;;14.80;99.90;;;;;;5032061;28;20090;-84
2022/10/08 11:50:36;;;;;;;3.83;1.35;;;14.80;99.90;;;;;;5064654;28;20028;-85
2022/10/08 11:53:19;;;;;;;3.53;1.00;;;14.70;99.90;;;;;;5037756;28;20552;-84
2022/10/08 11:55:52;;;;;;;2.55;1.10;;;14.70;99.90;;;;;;5015902;28;20214;-84
2022/10/08 11:58:27;;;;;;;2.97;0.93;;;14.80;99.90;;;;;;5051308;28;20035;-84
2022/10/08 12:01:06;;;;;;;1.50;0.70;;;14.90;99.90;;;;;;5067924;28;20502;-84
2022/10/08 12:03:36;;;;;;;2.50;0.70;;;15.10;99.90;;;;;;5052039;28;20024;-84
2022/10/08 12:06:25;;;;;;;2.42;0.80;;;15.30;99.90;;;;;;5018601;28;20056;-84
2022/10/08 12:08:58;;;;;;;4.45;0.80;;;15.50;99.90;;;;;;5068610;28;20077;-84
2022/10/08 12:11:34;;;;;;;3.65;0.73;;;15.60;99.90;;;;;;5059891;28;20128;-85
2022/10/08 12:14:10;;;;;;;1.73;0.95;;;15.70;99.90;;;;;;5047111;28;20777;-83
2022/10/08 12:16:48;;;;;;;4.38;0.98;;;15.80;99.90;;;;;;5047633;28;20032;-84
2022/10/08 12:19:32;;;;;;;5.68;0.60;;;15.90;99.90;;;;;;5065414;28;20035;-84
2022/10/08 12:22:13;;;;;;;1.40;0.88;;;16.00;99.90;;;;;;5057562;28;20110;-86
2022/10/08 12:24:39;;;;;;;2.60;0.82;;;16.10;99.90;;;;;;5048166;28;20066;-84
2022/10/08 12:27:16;;;;;;;2.75;0.77;;;16.10;99.90;;;;;;5061826;28;20033;-84
2022/10/08 12:29:56;;;;;;;2.08;0.55;;;16.10;99.90;;;;;;5046787;28;20033;-86
2022/10/08 12:32:24;;;;;;;2.55;0.93;;;16.20;99.90;;;;;;5043082;28;20112;-84
2022/10/08 12:34:51;;;;;;;3.55;1.17;;;16.20;99.90;;;;;;5055853;28;20040;-84
2022/10/08 12:37:32;;;;;;;1.48;0.70;;;16.30;99.90;;;;;;5043955;28;20093;-85
2022/10/08 12:40:08;;;;;;;4.35;0.90;;;16.30;99.90;;;;;;5062426;28;20086;-83
2022/10/08 12:42:36;;;;;;;2.05;1.00;;;16.10;99.90;;;;;;5049752;28;20036;-85
2022/10/08 12:45:26;;;;;;;3.85;0.82;;;16.10;99.90;;;;;;5026313;28;20090;-84
2022/10/08 12:47:58;;;;;;;3.45;0.80;;;15.90;99.90;;;;;;5032109;28;20108;-85
2022/10/08 12:51:13;;;;;;;1.98;0.65;;;15.80;99.90;;;;;;5051929;28;21838;-86
2022/10/08 12:53:44;;;;;;;3.65;1.05;;;15.70;99.90;;;;;;5033467;28;20041;-85
2022/10/08 12:56:16;;;;;;;5.28;0.82;;;15.60;99.90;;;;;;5045967;28;20067;-85
2022/10/08 12:58:44;;;;;;;5.00;1.25;;;15.60;99.90;;;;;;5064406;28;20029;-84
2022/10/08 13:01:14;;;;;;;3.67;0.95;;;15.60;99.90;;;;;;5030749;28;20109;-86